createdAt,value
2022-09-12T00:01:54.219Z,101130.97
2022-09-12T00:04:20.951Z,101124.53
2022-09-12T00:06:49.904Z,101132.69
2022-09-12T00:09:16.649Z,101124.47
2022-09-12T00:11:47.703Z,101119.28
2022-09-12T00:14:16.831Z,101118.38
2022-09-12T00:16:44.019Z,101118.38
2022-09-12T00:19:11.571Z,101113.75
2022-09-12T00:21:39.482Z,101115.59
2022-09-12T00:24:06.512Z,101121.09
2022-09-12T00:26:33.160Z,101114.84
2022-09-12T00:29:00.003Z,101119.34
2022-09-12T00:31:27.239Z,101108.69
2022-09-12T00:33:56.574Z,101111.28
2022-09-12T00:36:24.548Z,101110.41
2022-09-12T00:38:51.763Z,101104.09
2022-09-12T00:41:19.834Z,101101.47
2022-09-12T00:43:49.171Z,101098.72
2022-09-12T00:46:52.847Z,101100.41
2022-09-12T00:49:37.340Z,101102.16
2022-09-12T00:52:11.421Z,101096.06
2022-09-12T00:54:48.258Z,101095.25
2022-09-12T00:57:15.632Z,101095.28
2022-09-12T00:59:56.897Z,101089.94
2022-09-12T01:02:23.568Z,101082.00
2022-09-12T01:04:50.344Z,101088.25
2022-09-12T01:07:16.904Z,101089.88
2022-09-12T01:09:44.615Z,101084.50
2022-09-12T01:12:13.388Z,101084.50
2022-09-12T01:14:40.150Z,101087.28
2022-09-12T01:17:06.805Z,101082.75
2022-09-12T01:19:39.557Z,101085.38
2022-09-12T01:22:31.014Z,101084.44
2022-09-12T01:25:10.242Z,101083.47
2022-09-12T01:28:46.270Z,101083.31
2022-09-12T01:36:30.897Z,101074.59
2022-09-12T01:39:38.988Z,101075.28
2022-09-12T01:42:35.092Z,101078.00
2022-09-12T01:45:14.412Z,101073.75
2022-09-12T01:47:46.748Z,101076.50
2022-09-12T01:50:22.983Z,101079.03
2022-09-12T01:52:57.238Z,101071.75
2022-09-12T01:55:36.958Z,101063.63
2022-09-12T01:58:08.055Z,101060.34
2022-09-12T02:00:39.328Z,101059.47
2022-09-12T02:03:09.932Z,101069.09
2022-09-12T02:05:40.466Z,101052.47
2022-09-12T02:08:13.323Z,101040.88
2022-09-12T02:11:03.736Z,101038.16
2022-09-12T02:13:42.173Z,101040.91
2022-09-12T02:16:35.441Z,101040.03
2022-09-12T02:19:12.953Z,101042.69
2022-09-12T02:21:40.403Z,101045.41
2022-09-12T02:24:08.009Z,101037.31
2022-09-12T02:26:38.394Z,101043.50
2022-09-12T02:29:05.175Z,101040.06
2022-09-12T02:31:31.698Z,101033.75
2022-09-12T02:34:09.708Z,101031.97
2022-09-12T02:36:46.266Z,101034.69
2022-09-12T02:39:12.987Z,101035.41
2022-09-12T02:41:39.683Z,101040.81
2022-09-12T02:44:15.809Z,101040.47
2022-09-12T02:46:49.043Z,101036.75
2022-09-12T02:49:17.044Z,101036.75
2022-09-12T02:51:46.130Z,101033.41
2022-09-12T02:54:13.284Z,101030.63
2022-09-12T02:56:44.095Z,101033.13
2022-09-12T02:59:14.236Z,101026.13
2022-09-12T03:01:50.086Z,101024.41
2022-09-12T03:04:53.948Z,101020.13
2022-09-12T03:07:38.519Z,101021.97
2022-09-12T03:10:14.122Z,101018.44
2022-09-12T03:12:52.769Z,101028.97
2022-09-12T03:15:38.080Z,101018.38
2022-09-12T03:31:21.527Z,101013.09
2022-09-12T03:33:48.216Z,101014.88
2022-09-12T03:36:25.523Z,101012.28
2022-09-12T03:38:52.788Z,101010.50
2022-09-12T03:41:19.840Z,101014.75
2022-09-12T03:43:46.966Z,101014.59
2022-09-12T03:46:13.770Z,101017.09
2022-09-12T03:48:41.240Z,101010.91
2022-09-12T03:51:09.517Z,101018.78
2022-09-12T03:53:36.870Z,101017.22
2022-09-12T03:56:08.661Z,101012.69
2022-09-12T03:58:36.338Z,101010.75
2022-09-12T04:01:12.431Z,101013.41
2022-09-12T04:04:04.665Z,101018.75
2022-09-12T04:06:42.865Z,101012.41
2022-09-12T04:09:09.666Z,101004.50
2022-09-12T04:11:36.273Z,101001.06
2022-09-12T04:14:02.873Z,100996.88
2022-09-12T04:16:29.842Z,100995.28
2022-09-12T04:18:56.486Z,101000.56
2022-09-12T04:21:24.561Z,100997.03
2022-09-12T04:23:51.989Z,100997.00
2022-09-12T04:26:19.389Z,100992.63
2022-09-12T04:28:46.711Z,100994.22
2022-09-12T04:31:18.448Z,100985.53
2022-09-12T04:33:45.762Z,100988.03
2022-09-12T04:36:16.520Z,100991.56
2022-09-12T04:38:45.074Z,100991.47
2022-09-12T04:41:23.168Z,100987.88
2022-09-12T04:43:58.206Z,100982.66
2022-09-12T04:46:25.990Z,100987.09
2022-09-12T04:48:56.668Z,100986.84
2022-09-12T04:51:30.228Z,100992.91
2022-09-12T04:53:59.380Z,100983.25
2022-09-12T04:56:26.728Z,100982.56
2022-09-12T04:58:53.612Z,100977.25
2022-09-12T05:01:21.920Z,100972.03
2022-09-12T05:03:49.601Z,100971.13
2022-09-12T05:06:19.288Z,100973.00
2022-09-12T05:08:46.433Z,100973.78
2022-09-12T05:11:15.566Z,100965.97
2022-09-12T05:13:42.376Z,100969.28
2022-09-12T05:16:11.891Z,100970.25
2022-09-12T05:18:39.128Z,100970.22
2022-09-12T05:21:08.063Z,100963.25
2022-09-12T05:23:35.403Z,100968.69
2022-09-12T05:26:03.271Z,100959.00
2022-09-12T05:28:39.966Z,100964.44
2022-09-12T05:31:11.025Z,100964.44
2022-09-12T05:33:38.970Z,100960.97
2022-09-12T05:36:07.563Z,100967.25
2022-09-12T05:38:42.463Z,100962.81
2022-09-12T05:41:20.837Z,100959.22
2022-09-12T05:43:57.644Z,100961.09
2022-09-12T05:46:26.366Z,100963.69
2022-09-12T05:48:56.377Z,100964.69
2022-09-12T05:51:28.634Z,100964.72
2022-09-12T05:53:57.568Z,100963.84
2022-09-12T05:56:26.490Z,100964.75
2022-09-12T05:59:32.291Z,100969.19
2022-09-12T06:02:06.973Z,100971.84
2022-09-12T06:04:33.806Z,100973.63
2022-09-12T06:07:00.644Z,100976.31
2022-09-12T06:09:29.610Z,100974.53
2022-09-12T06:11:56.462Z,100987.00
2022-09-12T06:14:23.158Z,100981.69
2022-09-12T06:16:50.606Z,100984.34
2022-09-12T06:19:21.862Z,100985.28
2022-09-12T06:21:49.701Z,100987.94
2022-09-12T06:24:17.657Z,100980.81
2022-09-12T06:26:47.418Z,100979.03
2022-09-12T06:29:14.484Z,100984.38
2022-09-12T06:31:42.724Z,100981.66
2022-09-12T06:34:11.918Z,100986.97
2022-09-12T06:36:44.617Z,100982.47
2022-09-12T06:39:17.066Z,100976.25
2022-09-12T06:41:44.587Z,100974.44
2022-09-12T06:44:17.142Z,100972.66
2022-09-12T06:46:44.404Z,100977.03
2022-09-12T06:49:11.688Z,100973.44
2022-09-12T06:51:38.532Z,100982.38
2022-09-12T06:54:05.727Z,100985.81
2022-09-12T06:56:32.537Z,100984.94
2022-09-12T06:58:59.466Z,100979.59
2022-09-12T07:01:31.369Z,100984.84
2022-09-12T07:04:00.142Z,100984.97
2022-09-12T07:06:31.862Z,100991.13
2022-09-12T07:08:59.608Z,100978.72
2022-09-12T07:11:34.639Z,100992.00
2022-09-12T07:14:01.935Z,100987.41
2022-09-12T07:16:29.340Z,100987.41
2022-09-12T07:18:58.913Z,100993.63
2022-09-12T07:21:25.948Z,100999.06
2022-09-12T07:23:55.378Z,100995.38
2022-09-12T07:26:22.174Z,100994.63
2022-09-12T07:28:54.208Z,100986.47
2022-09-12T07:31:23.301Z,100984.59
2022-09-12T07:33:54.387Z,100990.91
2022-09-12T07:36:23.773Z,100980.13
2022-09-12T07:38:57.457Z,100976.56
2022-09-12T07:41:29.639Z,100982.91
2022-09-12T07:43:58.566Z,100989.09
2022-09-12T07:46:26.572Z,100975.66
2022-09-12T07:48:56.488Z,100982.84
2022-09-12T07:51:24.330Z,100979.16
2022-09-12T07:53:51.745Z,100988.09
2022-09-12T07:56:19.961Z,100984.50
2022-09-12T07:58:47.270Z,100987.00
2022-09-12T08:01:13.919Z,100988.03
2022-09-12T08:03:42.147Z,100994.16
2022-09-12T08:06:11.362Z,100980.94
2022-09-12T08:08:38.893Z,100982.59
2022-09-12T08:11:08.261Z,100986.13
2022-09-12T08:13:36.849Z,100983.56
2022-09-12T08:16:07.104Z,100988.03
2022-09-12T08:18:35.514Z,101005.81
2022-09-12T08:21:04.771Z,101004.22
2022-09-12T08:23:31.747Z,100993.44
2022-09-12T08:26:05.315Z,100999.66
2022-09-12T08:28:34.214Z,100996.13
2022-09-12T08:31:02.058Z,100999.50
2022-09-12T08:33:33.183Z,100991.22
2022-09-12T08:36:27.261Z,100984.84
2022-09-12T08:38:59.229Z,100983.13
2022-09-12T08:41:32.928Z,100979.47
2022-09-12T08:44:24.447Z,100975.09
2022-09-12T08:47:28.230Z,100979.59
2022-09-12T08:50:06.019Z,100984.91
2022-09-12T08:52:42.076Z,100984.16
2022-09-12T08:55:37.129Z,100988.53
2022-09-12T08:58:20.204Z,100987.56
2022-09-12T09:01:05.212Z,100981.31
2022-09-12T09:03:55.301Z,100984.72
2022-09-12T09:06:34.084Z,100983.03
2022-09-12T09:09:38.656Z,100980.22
2022-09-12T09:12:29.686Z,100984.59
2022-09-12T09:15:14.752Z,100979.91
2022-09-12T09:18:24.258Z,100981.59
2022-09-12T09:21:03.752Z,100979.03
2022-09-12T09:23:34.342Z,100977.88
2022-09-12T09:26:11.504Z,100980.53
2022-09-12T09:29:00.449Z,100975.78
2022-09-12T09:31:32.908Z,100967.34
2022-09-12T09:34:02.095Z,100970.03
2022-09-12T09:37:30.333Z,100963.22
2022-09-12T09:40:12.663Z,100956.97
2022-09-12T09:43:04.430Z,100956.19
2022-09-12T09:45:31.364Z,100952.25
2022-09-12T09:48:13.248Z,100957.56
2022-09-12T09:50:47.983Z,100955.13
2022-09-12T09:53:39.002Z,100947.06
2022-09-12T09:56:10.512Z,100949.00
2022-09-12T09:58:37.894Z,100947.06
2022-09-12T10:01:06.516Z,100948.09
2022-09-12T10:03:35.824Z,100937.44
2022-09-12T10:06:22.066Z,100943.72
2022-09-12T10:08:50.292Z,100937.16
2022-09-12T10:11:21.003Z,100939.94
2022-09-12T10:13:53.483Z,100942.72
2022-09-12T10:16:32.323Z,100933.59
2022-09-12T10:19:04.035Z,100933.41
2022-09-12T10:21:34.821Z,100929.53
2022-09-12T10:24:22.679Z,100922.84
2022-09-12T10:26:57.105Z,100914.31
2022-09-12T10:29:32.406Z,100918.78
2022-09-12T10:32:02.357Z,100916.66
2022-09-12T10:34:42.439Z,100912.75
2022-09-12T10:37:31.882Z,100910.97
2022-09-12T10:40:00.215Z,100908.09
2022-09-12T10:42:45.802Z,100905.16
2022-09-12T10:45:32.156Z,100899.44
2022-09-12T10:48:23.151Z,100901.75
2022-09-12T10:50:49.873Z,100901.59
2022-09-12T10:53:22.578Z,100895.47
2022-09-12T10:56:04.084Z,100887.56
2022-09-12T10:59:07.929Z,100881.81
2022-09-12T11:02:12.806Z,100888.75
2022-09-12T11:04:42.182Z,100889.56
2022-09-12T11:07:30.036Z,100884.63
2022-09-12T11:10:15.090Z,100885.91
2022-09-12T11:12:48.330Z,100873.81
2022-09-12T11:15:33.733Z,100874.78
2022-09-12T11:18:34.889Z,100866.97
2022-09-12T11:21:28.989Z,100860.53
2022-09-12T11:24:20.660Z,100869.00
2022-09-12T11:27:21.049Z,100862.69
2022-09-12T11:29:54.901Z,100869.78
2022-09-12T11:32:21.506Z,100863.59
2022-09-12T11:35:18.216Z,100865.22
2022-09-12T11:38:09.566Z,100851.66
2022-09-12T11:40:50.810Z,100843.66
2022-09-12T11:43:25.795Z,100849.34
2022-09-12T11:45:53.030Z,100843.63
2022-09-12T11:48:41.905Z,100840.81
2022-09-12T11:51:18.944Z,100837.28
2022-09-12T11:53:50.621Z,100834.16
2022-09-12T11:56:18.826Z,100833.88
2022-09-12T11:58:54.871Z,100834.97
2022-09-12T12:01:43.966Z,100836.81
2022-09-12T12:04:18.276Z,100820.34
2022-09-12T12:07:02.550Z,100831.53
2022-09-12T12:09:31.351Z,100835.75
2022-09-12T12:11:58.520Z,100837.66
2022-09-12T12:14:47.434Z,100823.88
2022-09-12T12:17:27.554Z,100819.44
2022-09-12T12:20:04.714Z,100820.41
2022-09-12T12:22:32.530Z,100818.69
2022-09-12T12:25:18.377Z,100821.34
2022-09-12T12:27:56.809Z,100815.97
2022-09-12T12:30:30.040Z,100813.16
2022-09-12T12:33:10.467Z,100806.38
2022-09-12T12:35:41.556Z,100809.69
2022-09-12T12:38:37.232Z,100802.63
2022-09-12T12:41:19.135Z,100796.34
2022-09-12T12:43:50.804Z,100796.34
2022-09-12T12:46:22.430Z,100792.03
2022-09-12T12:49:07.344Z,100787.34
2022-09-12T12:51:40.958Z,100783.22
2022-09-12T12:54:27.174Z,100775.00
2022-09-12T12:57:20.316Z,100778.25
2022-09-12T12:59:59.506Z,100772.94
2022-09-12T13:02:41.011Z,100777.28
2022-09-12T13:05:18.761Z,100768.13
2022-09-12T13:07:48.122Z,100769.13
2022-09-12T13:10:28.897Z,100770.41
2022-09-12T13:13:03.350Z,100777.38
2022-09-12T13:15:36.122Z,100771.78
2022-09-12T13:18:08.201Z,100754.44
2022-09-12T13:20:43.745Z,100759.59
2022-09-12T13:23:22.959Z,100753.50
2022-09-12T13:25:55.095Z,100746.81
2022-09-12T13:28:22.287Z,100738.25
2022-09-12T13:31:11.836Z,100741.13
2022-09-12T13:33:48.624Z,100739.97
2022-09-12T13:36:21.530Z,100741.75
2022-09-12T13:39:13.147Z,100743.69
2022-09-12T13:41:53.428Z,100737.66
2022-09-12T13:44:21.277Z,100734.59
2022-09-12T13:46:47.982Z,100736.25
2022-09-12T13:49:37.154Z,100739.13
2022-09-12T13:52:18.071Z,100738.19
2022-09-12T13:54:47.267Z,100732.03
2022-09-12T13:57:38.039Z,100733.47
2022-09-12T14:00:20.325Z,100721.41
2022-09-12T14:02:48.266Z,100721.63
2022-09-12T14:05:24.596Z,100719.31
2022-09-12T14:07:56.421Z,100712.16
2022-09-12T14:10:33.076Z,100706.63
2022-09-12T14:13:11.500Z,100703.03
2022-09-12T14:15:41.280Z,100704.06
2022-09-12T14:18:21.183Z,100714.69
2022-09-12T14:20:48.357Z,100700.38
2022-09-12T14:23:29.453Z,100705.34
2022-09-12T14:26:02.682Z,100703.72
2022-09-12T14:28:30.268Z,100694.94
2022-09-12T14:31:18.386Z,100688.69
2022-09-12T14:33:55.075Z,100688.81
2022-09-12T14:36:29.483Z,100684.22
2022-09-12T14:39:07.977Z,100665.56
2022-09-12T14:41:37.820Z,100665.69
2022-09-12T14:44:15.528Z,100671.50
2022-09-12T14:46:42.716Z,100671.91
2022-09-12T14:49:19.730Z,100672.22
2022-09-12T14:51:55.813Z,100666.41
2022-09-12T14:54:42.595Z,100667.00
2022-09-12T14:57:33.013Z,100666.97
2022-09-12T15:00:29.119Z,100658.09
2022-09-12T15:02:55.893Z,100646.34
2022-09-12T15:05:25.009Z,100654.84
2022-09-12T15:07:53.685Z,100655.53
2022-09-12T15:10:25.194Z,100650.28
2022-09-12T15:13:10.931Z,100650.41
2022-09-12T15:15:39.231Z,100646.00
2022-09-12T15:18:06.945Z,100650.81
2022-09-12T15:20:36.413Z,100650.69
2022-09-12T15:23:03.184Z,100647.44
2022-09-12T15:25:30.000Z,100649.56
2022-09-12T15:27:56.765Z,100645.69
2022-09-12T15:30:24.980Z,100642.53
2022-09-12T15:32:51.642Z,100639.28
2022-09-12T15:35:21.574Z,100624.13
2022-09-12T15:37:49.023Z,100625.66
2022-09-12T15:40:16.519Z,100620.72
2022-09-12T15:42:43.700Z,100625.28
2022-09-12T15:45:22.842Z,100618.97
2022-09-12T15:47:49.564Z,100613.44
2022-09-12T15:50:16.297Z,100613.06
2022-09-12T15:52:43.018Z,100618.94
2022-09-12T15:55:19.429Z,100616.44
2022-09-12T15:57:46.285Z,100615.59
2022-09-12T16:00:13.980Z,100610.53
2022-09-12T16:02:40.959Z,100610.78
2022-09-12T16:05:14.372Z,100606.38
2022-09-12T16:07:41.055Z,100603.69
2022-09-12T16:10:08.562Z,100594.75
2022-09-12T16:12:35.642Z,100592.19
2022-09-12T16:15:02.588Z,100583.47
2022-09-12T16:17:29.513Z,100582.38
2022-09-12T16:19:58.672Z,100573.16
2022-09-12T16:22:25.370Z,100580.72
2022-09-12T16:24:52.061Z,100574.28
2022-09-12T16:27:19.642Z,100570.91
2022-09-12T16:29:46.465Z,100569.75
2022-09-12T16:32:13.219Z,100570.28
2022-09-12T16:34:39.966Z,100568.13
2022-09-12T16:37:06.673Z,100566.31
2022-09-12T16:39:34.479Z,100573.19
2022-09-12T16:42:01.130Z,100571.97
2022-09-12T16:44:27.787Z,100571.25
2022-09-12T16:46:54.508Z,100570.06
2022-09-12T16:49:21.784Z,100565.28
2022-09-12T16:51:48.490Z,100563.09
2022-09-12T16:54:15.773Z,100557.94
2022-09-12T16:56:42.453Z,100557.78
2022-09-12T16:59:16.248Z,100552.84
2022-09-12T17:01:43.409Z,100552.31
2022-09-12T17:04:10.684Z,100555.91
2022-09-12T17:06:37.415Z,100554.25
2022-09-12T17:09:04.971Z,100549.75
2022-09-12T17:11:34.934Z,100544.25
2022-09-12T17:14:09.064Z,100546.34
2022-09-12T17:16:38.971Z,100547.31
2022-09-12T17:19:07.888Z,100544.44
2022-09-12T17:21:35.501Z,100547.41
2022-09-12T17:24:03.335Z,100543.41
2022-09-12T17:26:30.056Z,100542.84
2022-09-12T17:28:56.860Z,100544.28
2022-09-12T17:31:23.577Z,100539.38
2022-09-12T17:33:50.257Z,100534.69
2022-09-12T17:36:17.995Z,100535.94
2022-09-12T17:38:45.797Z,100535.19
2022-09-12T17:41:20.106Z,100531.28
2022-09-12T17:43:50.863Z,100534.69
2022-09-12T17:46:21.414Z,100533.13
2022-09-12T17:48:56.135Z,100529.81
2022-09-12T17:51:25.013Z,100533.38
2022-09-12T17:54:11.844Z,100529.31
2022-09-12T17:56:39.185Z,100520.25
2022-09-12T17:59:07.424Z,100519.00
2022-09-12T18:01:52.570Z,100525.72
2022-09-12T18:04:20.146Z,100532.81
2022-09-12T18:06:50.260Z,100528.81
2022-09-12T18:09:19.742Z,100522.91
2022-09-12T18:11:48.135Z,100527.56
2022-09-12T18:14:15.215Z,100535.84
2022-09-12T18:16:42.462Z,100537.97
2022-09-12T18:19:11.021Z,100534.66
2022-09-12T18:21:38.274Z,100532.22
2022-09-12T18:24:05.513Z,100534.31
2022-09-12T18:26:32.763Z,100513.91
2022-09-12T18:28:59.657Z,100500.31
2022-09-12T18:31:29.823Z,100501.19
2022-09-12T18:33:59.672Z,100509.78
2022-09-12T18:36:26.765Z,100514.66
2022-09-12T18:38:53.317Z,100511.13
2022-09-12T18:41:22.135Z,100512.81
2022-09-12T18:43:49.278Z,100513.19
2022-09-12T18:46:18.240Z,100511.44
2022-09-12T18:48:45.901Z,100513.25
2022-09-12T18:51:20.981Z,100512.16
2022-09-12T18:54:06.284Z,100509.53
2022-09-12T18:56:35.932Z,100502.19
2022-09-12T18:59:04.998Z,100499.44
2022-09-12T19:01:33.752Z,100500.28
2022-09-12T19:04:07.404Z,100486.72
2022-09-12T19:06:36.791Z,100479.25
2022-09-12T19:09:07.601Z,100481.28
2022-09-12T19:11:36.691Z,100485.16
2022-09-12T19:14:03.570Z,100489.97
2022-09-12T19:16:30.886Z,100488.88
2022-09-12T19:18:58.525Z,100487.88
2022-09-12T19:21:29.902Z,100496.63
2022-09-12T19:23:59.882Z,100493.19
2022-09-12T19:26:26.649Z,100498.47
2022-09-12T19:28:54.531Z,100511.19
2022-09-12T19:31:22.023Z,100496.28
2022-09-12T19:33:49.361Z,100482.66
2022-09-12T19:36:41.266Z,100483.13
2022-09-12T19:39:06.040Z,100491.16
2022-09-12T19:41:33.175Z,100492.06
2022-09-12T19:44:00.391Z,100492.13
2022-09-12T19:46:27.289Z,100492.91
2022-09-12T19:48:54.311Z,100494.59
2022-09-12T19:51:21.768Z,100491.78
2022-09-12T19:53:50.207Z,100496.94
2022-09-12T19:56:17.236Z,100493.06
2022-09-12T19:58:46.160Z,100500.56
2022-09-12T20:01:18.124Z,100497.13
2022-09-12T20:03:45.583Z,100495.19
2022-09-12T20:06:13.909Z,100502.50
2022-09-12T20:08:42.326Z,100495.63
2022-09-12T20:11:09.931Z,100502.81
2022-09-12T20:13:36.661Z,100497.41
2022-09-12T20:16:21.841Z,100493.94
2022-09-12T20:18:56.431Z,100487.84
2022-09-12T20:21:31.422Z,100481.06
2022-09-12T20:24:11.542Z,100477.09
2022-09-12T20:26:38.563Z,100472.41
2022-09-12T20:29:06.467Z,100477.13
2022-09-12T20:31:34.016Z,100481.56
2022-09-12T20:34:00.983Z,100480.50
2022-09-12T20:36:28.078Z,100473.50
2022-09-12T20:38:57.519Z,100481.69
2022-09-12T20:41:25.376Z,100470.28
2022-09-12T20:43:53.026Z,100465.56
2022-09-12T20:46:22.230Z,100457.53
2022-09-12T20:48:51.554Z,100462.50
2022-09-12T20:51:19.356Z,100457.25
2022-09-12T20:53:50.442Z,100455.38
2022-09-12T20:56:17.208Z,100443.50
2022-09-12T20:58:44.787Z,100438.09
2022-09-12T21:01:13.245Z,100439.16
2022-09-12T21:03:43.554Z,100431.03
2022-09-12T21:06:12.491Z,100431.88
2022-09-12T21:08:39.632Z,100423.69
2022-09-12T21:11:06.934Z,100422.06
2022-09-12T21:13:33.697Z,100424.66
2022-09-12T21:16:01.962Z,100416.63
2022-09-12T21:18:29.297Z,100411.44
2022-09-12T21:20:56.531Z,100424.88
2022-09-12T21:23:24.201Z,100425.69
2022-09-12T21:25:52.714Z,100418.47
2022-09-12T21:28:21.407Z,100416.97
2022-09-12T21:30:48.989Z,100411.56
2022-09-12T21:33:15.680Z,100425.00
2022-09-12T21:35:42.357Z,100425.03
2022-09-12T21:38:09.350Z,100422.41
2022-09-12T21:40:36.357Z,100425.00
2022-09-12T21:43:04.318Z,100414.97
2022-09-12T21:45:33.561Z,100434.00
2022-09-12T21:48:00.669Z,100438.44
2022-09-12T21:50:27.420Z,100433.09
2022-09-12T21:52:54.244Z,100426.97
2022-09-12T21:55:26.236Z,100427.91
2022-09-12T21:57:56.201Z,100427.06
2022-09-12T22:00:25.553Z,100434.25
2022-09-12T22:02:55.153Z,100442.19
2022-09-12T22:05:24.570Z,100452.00
2022-09-12T22:07:51.470Z,100456.47
2022-09-12T22:10:18.373Z,100445.78
2022-09-12T22:12:46.515Z,100440.38
2022-09-12T22:15:38.800Z,100442.28
2022-09-12T22:18:00.678Z,100451.16
2022-09-12T22:20:27.225Z,100449.47
2022-09-12T22:23:12.581Z,100447.78
2022-09-12T22:25:39.506Z,100440.88
2022-09-12T22:28:07.290Z,100453.28
2022-09-12T22:30:34.083Z,100457.78
2022-09-12T22:33:00.636Z,100456.16
2022-09-12T22:35:27.504Z,100463.44
2022-09-12T22:37:54.223Z,100459.88
2022-09-12T22:40:20.765Z,100459.69
2022-09-12T22:42:47.602Z,100449.84
2022-09-12T22:45:14.334Z,100448.13
2022-09-12T22:47:41.315Z,100457.22
2022-09-12T22:50:08.268Z,100440.19
2022-09-12T22:52:34.879Z,100445.88
2022-09-12T22:55:01.447Z,100443.72
2022-09-12T22:57:28.008Z,100453.72
2022-09-12T22:59:54.577Z,100451.97
2022-09-12T23:02:21.418Z,100451.63
2022-09-12T23:04:48.552Z,100457.75
2022-09-12T23:07:15.720Z,100470.75
2022-09-12T23:09:42.559Z,100459.03
2022-09-12T23:12:09.675Z,100462.78
2022-09-12T23:14:36.259Z,100468.22
2022-09-12T23:17:03.212Z,100460.50
2022-09-12T23:19:29.796Z,100451.53
2022-09-12T23:21:56.420Z,100447.97
2022-09-12T23:24:23.039Z,100441.13
2022-09-12T23:26:49.586Z,100440.34
2022-09-12T23:29:16.410Z,100437.47
2022-09-12T23:31:43.036Z,100435.91
2022-09-12T23:34:10.127Z,100435.06
2022-09-12T23:36:36.752Z,100429.44
2022-09-12T23:39:03.999Z,100433.03
2022-09-12T23:41:31.074Z,100441.25
2022-09-12T23:43:57.916Z,100440.25
2022-09-12T23:46:24.490Z,100434.81
2022-09-12T23:48:53.120Z,100433.16
2022-09-12T23:51:21.650Z,100433.97
2022-09-12T23:53:48.446Z,100429.50
2022-09-12T23:56:15.038Z,100428.78
2022-09-12T23:58:41.759Z,100414.41
